Airfield :
LOGIN :

Register | Disclaimer

   EN    FR    IT 

 










Legend :    VFR   Marginal VFR   IFR   Intensive IFR   Very Intensive IFR
Visi :
Ceiling :
>= 8 km
>= 3000ft
5 to 8 km
1000 to 3000 ft
1500m to 5 km
500 to 1000 ft
800 to 1500m
200 to 500 ft
< 800m
< 200 ft
Symbols :   Thunderstorms  Fog  Heavy snow  Heavy precipitations  Wind > 20 kt
SIGMETs :     Misc.  Thunderstorms  Icing  Turbulence  Mountain Waves  Volcanic Ashes







- Airport Elevation : 461 ft
- IATA code : WIE


ETOU - Wiesbaden Army

CURRENT METAR :
  • 231556Z AUTO 28011KT 9999 BKN060 13/04 A3020 RMK AO2 SLP232 T01280037 $

EXPIRED METARs :
  • 231456Z AUTO 25013KT 9999 FEW038 BKN070 BKN100 OVC130 13/04 A3018 RMK AO2 SLP225 T01300036 57026 $
  • 231356Z AUTO 26014KT 9999 FEW080 SCT090 BKN120 13/03 A3021 RMK AO2 SLP236 T01260033 $

TAF AMD TAF ETOU
Valid from the 23 at 14:00 until the 24 at 17:00 UTC


231423Z 2314/2417 25009KT 9999 SCT035 QNH3020INS
TEMPO 2314/2320 26012G20KT
BECMG 2319/2320 27010G15KT 9999 BKN020 QNH3014INS
BECMG 2402/2403 28009KT 9999 BKN015 QNH3012INS
BECMG 2411/2412 25012G18KT 9999 BKN020 QNH3016INS TX13/2315Z TN03/2404Z
No reported NOTAMs for that airfield.



MET'MAP, your aeronautical weather chart ! - Copyright ORBIFLY December 2007 - Disclaimer

ORBIFLY MET'MAP TEAM :

Programming & Development : Alexandra Zaïnal
Concept & Development : Baudouin d'Aumeries
Co-Development & Prog : Marc-Olivier Méhu
Technical & hardware support : Manuel Goepfert

Contact : metmap@orbifly.com




SOURCES & CREDITS :

   NOAA